createdAt,value
2018-12-09T00:00:26.377Z,28.70
2018-12-09T00:03:01.185Z,28.70
2018-12-09T00:05:35.862Z,28.70
2018-12-09T00:08:13.380Z,28.70
2018-12-09T00:10:47.418Z,28.60
2018-12-09T00:13:21.294Z,28.60
2018-12-09T00:15:55.722Z,28.70
2018-12-09T00:18:30.687Z,28.60
2018-12-09T00:21:04.973Z,28.70
2018-12-09T00:23:38.953Z,28.70
2018-12-09T00:26:13.069Z,28.70
2018-12-09T00:28:48.385Z,28.70
2018-12-09T00:31:22.760Z,28.70
2018-12-09T00:33:57.236Z,28.70
2018-12-09T00:36:32.186Z,28.70
2018-12-09T00:39:06.147Z,28.70
2018-12-09T00:41:42.004Z,28.80
2018-12-09T00:44:16.435Z,28.80
2018-12-09T00:46:51.115Z,28.80
2018-12-09T00:49:25.605Z,28.80
2018-12-09T00:52:00.474Z,28.80
2018-12-09T00:54:36.586Z,28.80
2018-12-09T00:57:10.797Z,28.80
2018-12-09T00:59:44.904Z,28.90
2018-12-09T01:02:19.019Z,28.90
2018-12-09T01:04:54.148Z,28.90
2018-12-09T01:07:28.236Z,29.00
2018-12-09T01:10:02.962Z,29.00
2018-12-09T01:12:39.385Z,29.00
2018-12-09T01:15:13.369Z,29.00
2018-12-09T01:17:47.500Z,29.10
2018-12-09T01:20:21.242Z,29.10
2018-12-09T01:22:55.259Z,29.10
2018-12-09T01:25:29.675Z,29.10
2018-12-09T01:28:04.897Z,29.10
2018-12-09T01:30:38.800Z,29.20
2018-12-09T01:33:14.223Z,29.20
2018-12-09T01:35:49.406Z,29.30
2018-12-09T01:38:23.682Z,29.30
2018-12-09T01:40:58.125Z,29.40
2018-12-09T01:43:32.175Z,29.50
2018-12-09T01:46:07.310Z,29.50
2018-12-09T01:48:42.764Z,29.60
2018-12-09T01:51:18.007Z,29.60
2018-12-09T01:54:22.292Z,29.70
2018-12-09T01:56:57.884Z,29.80
2018-12-09T01:59:33.242Z,29.80
2018-12-09T02:02:07.427Z,29.90
2018-12-09T02:04:42.521Z,29.90
2018-12-09T02:07:17.822Z,30.00
2018-12-09T02:09:52.965Z,30.00
2018-12-09T02:12:28.989Z,30.10
2018-12-09T02:15:03.213Z,30.20
2018-12-09T02:17:37.447Z,30.20
2018-12-09T02:20:11.400Z,30.30
2018-12-09T02:22:45.350Z,30.30
2018-12-09T02:25:19.574Z,30.40
2018-12-09T02:27:54.277Z,30.40
2018-12-09T02:30:28.701Z,30.40
2018-12-09T02:33:04.719Z,30.50
2018-12-09T02:35:44.800Z,30.50
2018-12-09T02:38:18.574Z,30.50
2018-12-09T02:40:52.723Z,30.50
2018-12-09T02:43:26.794Z,30.60
2018-12-09T02:46:00.883Z,30.60
2018-12-09T02:48:35.728Z,30.60
2018-12-09T02:51:11.862Z,30.60
2018-12-09T02:53:47.236Z,30.60
2018-12-09T02:56:21.220Z,30.60
2018-12-09T02:58:56.250Z,30.60
2018-12-09T03:01:30.077Z,30.60
2018-12-09T03:04:04.264Z,30.60
2018-12-09T03:06:39.192Z,30.60
2018-12-09T03:09:13.227Z,30.60
2018-12-09T03:11:47.350Z,30.60
2018-12-09T03:14:21.330Z,30.60
2018-12-09T03:16:55.965Z,30.60
2018-12-09T03:19:31.273Z,30.60
2018-12-09T03:22:08.457Z,30.60
2018-12-09T03:24:42.406Z,30.60
2018-12-09T03:27:17.054Z,30.60
2018-12-09T03:29:51.076Z,30.70
2018-12-09T03:32:25.488Z,30.70
2018-12-09T03:34:59.541Z,30.80
2018-12-09T03:37:33.743Z,30.80
2018-12-09T03:40:07.644Z,30.80
2018-12-09T03:42:41.946Z,30.80
2018-12-09T03:45:15.969Z,30.90
2018-12-09T03:47:49.887Z,30.90
2018-12-09T03:50:23.727Z,30.90
2018-12-09T03:52:59.691Z,30.90
2018-12-09T03:55:34.610Z,30.90
2018-12-09T03:58:08.860Z,30.90
2018-12-09T04:00:43.263Z,31.00
2018-12-09T04:03:17.452Z,31.00
2018-12-09T04:05:51.350Z,31.00
2018-12-09T04:08:25.341Z,31.00
2018-12-09T04:10:59.459Z,31.10
2018-12-09T04:13:33.136Z,31.10
2018-12-09T04:16:07.144Z,31.10
2018-12-09T04:18:41.135Z,31.10
2018-12-09T04:21:15.903Z,31.20
2018-12-09T04:23:50.560Z,31.20
2018-12-09T04:26:24.745Z,31.20
2018-12-09T04:28:58.777Z,31.30
2018-12-09T04:31:32.673Z,31.30
2018-12-09T04:34:08.201Z,31.30
2018-12-09T04:36:44.258Z,31.30
2018-12-09T04:39:19.847Z,31.30
2018-12-09T04:41:54.874Z,31.30
2018-12-09T04:44:29.047Z,31.30
2018-12-09T04:47:02.540Z,31.30
2018-12-09T04:49:36.710Z,31.30
2018-12-09T04:52:10.885Z,31.30
2018-12-09T04:54:45.534Z,31.30
2018-12-09T04:57:19.459Z,31.30
2018-12-09T04:59:56.816Z,31.30
2018-12-09T05:02:30.697Z,31.30
2018-12-09T05:05:05.078Z,31.30
2018-12-09T05:07:39.887Z,31.30
2018-12-09T05:10:13.844Z,31.30
2018-12-09T05:12:48.086Z,31.40
2018-12-09T05:15:22.229Z,31.40
2018-12-09T05:17:57.541Z,31.40
2018-12-09T05:20:31.404Z,31.40
2018-12-09T05:23:06.200Z,31.50
2018-12-09T05:25:40.290Z,31.50
2018-12-09T05:28:15.894Z,31.50
2018-12-09T05:30:51.806Z,31.60
2018-12-09T05:33:25.883Z,31.60
2018-12-09T05:36:00.144Z,31.60
2018-12-09T05:38:35.270Z,31.70
2018-12-09T05:41:09.401Z,31.70
2018-12-09T05:43:42.873Z,31.70
2018-12-09T05:46:23.307Z,31.80
2018-12-09T05:48:59.889Z,31.80
2018-12-09T05:51:34.012Z,31.80
2018-12-09T05:54:19.535Z,31.90
2018-12-09T05:56:56.206Z,31.90
2018-12-09T05:59:31.159Z,31.90
2018-12-09T06:02:14.232Z,31.90
2018-12-09T06:04:49.123Z,31.90
2018-12-09T06:07:24.262Z,32.00
2018-12-09T06:09:58.559Z,32.00
2018-12-09T06:12:32.498Z,32.00
2018-12-09T06:15:06.421Z,32.10
2018-12-09T06:17:40.490Z,32.10
2018-12-09T06:20:14.821Z,32.10
2018-12-09T06:22:48.744Z,32.20
2018-12-09T06:25:23.584Z,32.30
2018-12-09T06:28:09.000Z,32.30
2018-12-09T06:30:43.015Z,32.30
2018-12-09T06:33:17.775Z,32.40
2018-12-09T06:35:52.185Z,32.40
2018-12-09T06:38:26.624Z,32.60
2018-12-09T06:41:00.743Z,32.60
2018-12-09T06:43:35.210Z,32.60
2018-12-09T06:46:12.379Z,32.60
2018-12-09T06:48:47.434Z,32.60
2018-12-09T06:51:22.952Z,32.60
2018-12-09T06:53:58.730Z,32.60
2018-12-09T06:56:34.235Z,32.60
2018-12-09T06:59:09.799Z,32.70
2018-12-09T07:01:43.350Z,32.70
2018-12-09T07:04:18.225Z,32.70
2018-12-09T07:06:52.171Z,32.60
2018-12-09T07:09:26.386Z,32.70
2018-12-09T07:12:00.506Z,32.70
2018-12-09T07:14:35.232Z,32.70
2018-12-09T07:17:12.489Z,32.70
2018-12-09T07:19:47.229Z,32.70
2018-12-09T07:22:21.404Z,32.70
2018-12-09T07:24:57.322Z,32.60
2018-12-09T07:27:31.638Z,32.70
2018-12-09T07:30:05.864Z,32.70
2018-12-09T07:32:40.340Z,32.70
2018-12-09T07:35:16.104Z,32.70
2018-12-09T07:37:51.287Z,32.70
2018-12-09T07:40:25.467Z,32.70
2018-12-09T07:42:59.389Z,32.70
2018-12-09T07:45:34.297Z,32.70
2018-12-09T07:48:08.199Z,32.70
2018-12-09T07:50:42.999Z,32.70
2018-12-09T07:53:16.620Z,32.70
2018-12-09T07:55:50.992Z,32.80
2018-12-09T07:58:25.234Z,32.80
2018-12-09T08:01:00.016Z,32.80
2018-12-09T08:03:34.440Z,32.80
2018-12-09T08:06:09.215Z,32.80
2018-12-09T08:08:43.759Z,32.80
2018-12-09T08:11:18.586Z,32.80
2018-12-09T08:13:53.660Z,32.90
2018-12-09T08:16:29.033Z,32.90
2018-12-09T08:19:10.799Z,33.00
2018-12-09T08:21:46.932Z,33.00
2018-12-09T08:24:20.742Z,33.10
2018-12-09T08:26:56.084Z,33.20
2018-12-09T08:29:35.703Z,33.20
2018-12-09T08:32:10.901Z,33.30
2018-12-09T08:34:44.658Z,33.30
2018-12-09T08:37:19.203Z,33.30
2018-12-09T08:39:53.558Z,33.30
2018-12-09T08:42:28.406Z,33.40
2018-12-09T08:45:03.254Z,33.30
2018-12-09T08:47:38.574Z,33.30
2018-12-09T08:50:12.556Z,33.30
2018-12-09T08:52:46.792Z,33.20
2018-12-09T08:55:20.987Z,33.20
2018-12-09T08:57:55.075Z,33.10
2018-12-09T09:00:29.512Z,33.00
2018-12-09T09:03:05.634Z,33.00
2018-12-09T09:05:39.832Z,33.00
2018-12-09T09:08:14.003Z,32.90
2018-12-09T09:10:48.230Z,32.80
2018-12-09T09:13:21.996Z,32.80
2018-12-09T09:15:56.769Z,32.70
2018-12-09T09:18:31.275Z,32.70
2018-12-09T09:21:05.393Z,32.70
2018-12-09T09:23:39.412Z,32.60
2018-12-09T09:26:13.663Z,32.60
2018-12-09T09:28:49.211Z,32.60
2018-12-09T09:31:24.527Z,32.60
2018-12-09T09:33:58.594Z,32.50
2018-12-09T09:36:32.769Z,32.50
2018-12-09T09:39:07.188Z,32.50
2018-12-09T09:41:41.412Z,32.50
2018-12-09T09:44:15.459Z,32.50
2018-12-09T09:46:52.035Z,32.50
2018-12-09T09:49:26.280Z,32.40
2018-12-09T09:52:00.471Z,32.40
2018-12-09T09:54:35.449Z,32.40
2018-12-09T09:57:09.197Z,32.40
2018-12-09T09:59:43.211Z,32.40
2018-12-09T10:02:17.529Z,32.30
2018-12-09T10:04:52.661Z,32.40
2018-12-09T10:07:27.917Z,32.30
2018-12-09T10:10:01.882Z,32.30
2018-12-09T10:12:37.266Z,32.30
2018-12-09T10:15:11.332Z,32.30
2018-12-09T10:17:45.469Z,32.30
2018-12-09T10:20:20.766Z,32.30
2018-12-09T10:22:55.651Z,32.20
2018-12-09T10:25:30.068Z,32.20
2018-12-09T10:28:04.169Z,32.20
2018-12-09T10:30:42.062Z,32.20
2018-12-09T10:33:16.495Z,32.10
2018-12-09T10:35:50.340Z,32.20
2018-12-09T10:38:24.450Z,32.20
2018-12-09T10:40:58.229Z,32.20
2018-12-09T10:43:32.139Z,32.20
2018-12-09T10:46:06.263Z,32.10
2018-12-09T10:48:40.487Z,32.10
2018-12-09T10:51:14.565Z,32.10
2018-12-09T10:53:49.683Z,32.10
2018-12-09T10:56:26.069Z,32.10
2018-12-09T10:59:01.555Z,32.10
2018-12-09T11:01:44.688Z,32.10
2018-12-09T11:04:18.226Z,32.10
2018-12-09T11:06:52.947Z,32.10
2018-12-09T11:09:27.680Z,32.10
2018-12-09T11:12:01.951Z,32.10
2018-12-09T11:14:36.035Z,32.20
2018-12-09T11:17:10.548Z,32.20
2018-12-09T11:19:45.103Z,32.10
2018-12-09T11:22:18.998Z,32.10
2018-12-09T11:24:53.891Z,32.10
2018-12-09T11:27:27.970Z,32.10
2018-12-09T11:30:02.262Z,32.10
2018-12-09T11:32:35.938Z,32.10
2018-12-09T11:35:10.060Z,32.10
2018-12-09T11:37:43.982Z,32.00
2018-12-09T11:40:19.783Z,32.00
2018-12-09T11:42:54.011Z,32.00
2018-12-09T11:45:28.923Z,32.00
2018-12-09T11:48:03.152Z,31.90
2018-12-09T11:50:37.451Z,31.90
2018-12-09T11:53:11.502Z,31.90
2018-12-09T11:55:45.293Z,31.80
2018-12-09T11:58:19.622Z,31.90
2018-12-09T12:00:53.375Z,31.90
2018-12-09T12:03:27.589Z,31.90
2018-12-09T12:06:03.109Z,31.90
2018-12-09T12:08:38.176Z,31.90
2018-12-09T12:11:14.237Z,31.80
2018-12-09T12:13:48.282Z,31.80
2018-12-09T12:16:22.683Z,31.80
2018-12-09T12:18:57.007Z,31.80
2018-12-09T12:21:30.772Z,31.80
2018-12-09T12:24:04.916Z,31.70
2018-12-09T12:26:41.221Z,31.70
2018-12-09T12:29:15.022Z,31.70
2018-12-09T12:31:49.175Z,31.70
2018-12-09T12:34:23.520Z,31.70
2018-12-09T12:36:58.790Z,31.70
2018-12-09T12:39:33.122Z,31.70
2018-12-09T12:42:07.151Z,31.70
2018-12-09T12:44:41.182Z,31.70
2018-12-09T12:47:16.162Z,31.70
2018-12-09T12:49:50.184Z,31.70
2018-12-09T12:52:24.061Z,31.70
2018-12-09T12:54:58.297Z,31.70
2018-12-09T12:57:32.511Z,31.70
2018-12-09T13:00:11.284Z,31.70
2018-12-09T13:02:45.956Z,31.70
2018-12-09T13:05:20.909Z,31.60
2018-12-09T13:07:56.456Z,31.60
2018-12-09T13:10:32.692Z,31.60
2018-12-09T13:13:06.985Z,31.60
2018-12-09T13:15:41.574Z,31.50
2018-12-09T13:18:16.173Z,31.50
2018-12-09T13:20:51.245Z,31.40
2018-12-09T13:23:25.434Z,31.40
2018-12-09T13:26:00.494Z,31.40
2018-12-09T13:28:34.727Z,31.40
2018-12-09T13:31:09.163Z,31.30
2018-12-09T13:33:43.325Z,31.30
2018-12-09T13:36:17.408Z,31.30
2018-12-09T13:38:51.222Z,31.30
2018-12-09T13:41:25.553Z,31.20
2018-12-09T13:43:59.234Z,31.20
2018-12-09T13:46:33.468Z,31.20
2018-12-09T13:49:07.247Z,31.20
2018-12-09T13:51:41.121Z,31.10
2018-12-09T13:54:15.542Z,31.10
2018-12-09T13:56:50.540Z,31.10
2018-12-09T13:59:27.528Z,31.10
2018-12-09T14:02:02.061Z,31.10
2018-12-09T14:04:37.994Z,31.00
2018-12-09T14:07:12.202Z,31.00
2018-12-09T14:09:46.294Z,31.00
2018-12-09T14:12:21.532Z,30.90
2018-12-09T14:14:55.343Z,30.90
2018-12-09T14:17:29.281Z,30.90
2018-12-09T14:20:05.467Z,30.90
2018-12-09T14:22:39.715Z,30.90
2018-12-09T14:25:14.933Z,30.80
2018-12-09T14:27:49.553Z,30.80
2018-12-09T14:30:24.509Z,30.80
2018-12-09T14:32:59.034Z,30.80
2018-12-09T14:35:32.799Z,30.80
2018-12-09T14:38:06.625Z,30.70
2018-12-09T14:40:40.404Z,30.70
2018-12-09T14:43:15.183Z,30.70
2018-12-09T14:45:49.290Z,30.60
2018-12-09T14:48:23.117Z,30.60
2018-12-09T14:50:57.359Z,30.60
2018-12-09T14:53:31.142Z,30.60
2018-12-09T14:56:09.863Z,30.60
2018-12-09T14:58:52.376Z,30.60
2018-12-09T15:01:27.246Z,30.60
2018-12-09T15:04:01.333Z,30.60
2018-12-09T15:06:35.310Z,30.60
2018-12-09T15:09:09.988Z,30.70
2018-12-09T15:11:45.997Z,30.60
2018-12-09T15:14:20.547Z,30.60
2018-12-09T15:16:54.601Z,30.70
2018-12-09T15:19:28.786Z,30.70
2018-12-09T15:22:02.477Z,30.60
2018-12-09T15:24:41.355Z,30.60
2018-12-09T15:27:12.359Z,30.60
2018-12-09T15:29:46.523Z,30.70
2018-12-09T15:32:20.311Z,30.60
2018-12-09T15:34:54.604Z,30.60
2018-12-09T15:37:28.629Z,30.60
2018-12-09T15:40:02.939Z,30.60
2018-12-09T15:42:36.786Z,30.60
2018-12-09T15:45:11.927Z,30.60
2018-12-09T15:47:45.795Z,30.60
2018-12-09T15:50:19.758Z,30.60
2018-12-09T15:52:53.686Z,30.60
2018-12-09T15:55:27.592Z,30.60
2018-12-09T15:58:01.158Z,30.60
2018-12-09T16:00:42.459Z,30.60
2018-12-09T16:03:17.100Z,30.60
2018-12-09T16:05:51.298Z,30.60
2018-12-09T16:08:25.341Z,30.60
2018-12-09T16:10:59.428Z,30.60
2018-12-09T16:13:35.705Z,30.60
2018-12-09T16:16:10.718Z,30.60
2018-12-09T16:18:44.640Z,30.60
2018-12-09T16:21:18.815Z,30.60
2018-12-09T16:23:52.961Z,30.50
2018-12-09T16:26:27.131Z,30.50
2018-12-09T16:29:01.680Z,30.50
2018-12-09T16:31:36.091Z,30.50
2018-12-09T16:34:09.973Z,30.50
2018-12-09T16:36:43.603Z,30.40
2018-12-09T16:39:17.974Z,30.40
2018-12-09T16:41:53.639Z,30.40
2018-12-09T16:44:29.536Z,30.40
2018-12-09T16:47:03.598Z,30.40
2018-12-09T16:49:37.618Z,30.40
2018-12-09T16:52:12.891Z,30.40
2018-12-09T16:54:46.937Z,30.30
2018-12-09T16:57:21.586Z,30.30
2018-12-09T16:59:56.581Z,30.30
2018-12-09T17:02:30.687Z,30.30
2018-12-09T17:05:04.754Z,30.20
2018-12-09T17:07:42.145Z,30.20
2018-12-09T17:10:15.366Z,30.20
2018-12-09T17:12:49.193Z,30.20
2018-12-09T17:15:23.602Z,30.20
2018-12-09T17:17:58.453Z,30.10
2018-12-09T17:20:34.850Z,30.10
2018-12-09T17:23:09.407Z,30.10
2018-12-09T17:25:43.542Z,30.10
2018-12-09T17:28:19.213Z,30.10
2018-12-09T17:30:53.342Z,30.10
2018-12-09T17:33:26.936Z,30.10
2018-12-09T17:36:00.803Z,30.10
2018-12-09T17:38:35.452Z,30.10
2018-12-09T17:41:09.654Z,30.10
2018-12-09T17:43:44.498Z,30.10
2018-12-09T17:46:18.749Z,30.00
2018-12-09T17:48:53.720Z,30.00
2018-12-09T17:51:28.152Z,30.00
2018-12-09T17:54:02.135Z,30.00
2018-12-09T17:56:36.013Z,30.00
2018-12-09T17:59:10.160Z,30.00
2018-12-09T18:01:44.426Z,29.90
2018-12-09T18:04:19.415Z,29.90
2018-12-09T18:06:53.272Z,29.90
2018-12-09T18:09:27.181Z,29.90
2018-12-09T18:12:01.354Z,29.90
2018-12-09T18:14:35.527Z,29.90
2018-12-09T18:17:09.404Z,29.90
2018-12-09T18:19:43.877Z,29.90
2018-12-09T18:22:17.490Z,29.90
2018-12-09T18:24:51.546Z,29.90
2018-12-09T18:27:25.380Z,29.90
2018-12-09T18:29:59.194Z,29.90
2018-12-09T18:32:33.505Z,30.00
2018-12-09T18:35:09.705Z,30.00
2018-12-09T18:37:44.202Z,30.00
2018-12-09T18:40:26.110Z,30.00
2018-12-09T18:42:59.727Z,30.00
2018-12-09T18:45:33.815Z,30.00
2018-12-09T18:48:07.751Z,30.00
2018-12-09T18:50:42.072Z,30.00
2018-12-09T18:53:16.205Z,30.00
2018-12-09T18:55:50.209Z,30.00
2018-12-09T18:58:25.067Z,30.00
2018-12-09T19:00:59.192Z,30.00
2018-12-09T19:03:33.539Z,30.00
2018-12-09T19:06:07.505Z,30.00
2018-12-09T19:08:41.822Z,30.00
2018-12-09T19:11:15.893Z,30.00
2018-12-09T19:13:49.751Z,30.00
2018-12-09T19:16:23.885Z,30.10
2018-12-09T19:18:58.031Z,30.00
2018-12-09T19:21:32.843Z,30.10
2018-12-09T19:24:07.214Z,30.10
2018-12-09T19:26:41.156Z,30.10
2018-12-09T19:29:15.304Z,30.00
2018-12-09T19:31:51.258Z,30.00
2018-12-09T19:34:25.274Z,30.00
2018-12-09T19:36:59.288Z,30.00
2018-12-09T19:39:33.083Z,30.00
2018-12-09T19:42:07.173Z,30.00
2018-12-09T19:44:41.134Z,30.00
2018-12-09T19:47:15.570Z,30.00
2018-12-09T19:49:51.249Z,29.90
2018-12-09T19:52:24.998Z,29.90
2018-12-09T19:54:59.597Z,30.00
2018-12-09T19:57:33.701Z,29.90
2018-12-09T20:00:08.633Z,30.00
2018-12-09T20:02:44.241Z,30.00
2018-12-09T20:05:19.052Z,29.90
2018-12-09T20:07:54.004Z,29.90
2018-12-09T20:10:28.047Z,29.90
2018-12-09T20:13:01.427Z,29.90
2018-12-09T20:15:35.440Z,29.90
2018-12-09T20:18:09.387Z,29.90
2018-12-09T20:20:43.494Z,29.90
2018-12-09T20:23:18.836Z,29.80
2018-12-09T20:25:52.762Z,29.80
2018-12-09T20:28:27.428Z,29.80
2018-12-09T20:31:02.915Z,29.80
2018-12-09T20:33:37.348Z,29.70
2018-12-09T20:36:11.309Z,29.70
2018-12-09T20:38:46.326Z,29.70
2018-12-09T20:41:20.320Z,29.60
2018-12-09T20:43:55.559Z,29.60
2018-12-09T20:46:29.916Z,29.60
2018-12-09T20:49:05.116Z,29.60
2018-12-09T20:51:39.147Z,29.60
2018-12-09T20:54:13.066Z,29.60
2018-12-09T20:56:47.217Z,29.60
2018-12-09T20:59:21.207Z,29.60
2018-12-09T21:01:56.886Z,29.60
2018-12-09T21:04:30.957Z,29.60
2018-12-09T21:07:05.806Z,29.60
2018-12-09T21:09:40.080Z,29.60
2018-12-09T21:12:14.260Z,29.60
2018-12-09T21:14:48.118Z,29.60
2018-12-09T21:17:22.204Z,29.60
2018-12-09T21:22:34.137Z,29.60
2018-12-09T21:25:08.798Z,29.60
2018-12-09T21:27:42.676Z,29.60
2018-12-09T21:30:17.846Z,29.60
2018-12-09T21:32:52.563Z,29.60
2018-12-09T21:35:26.556Z,29.60
2018-12-09T21:38:01.286Z,29.50
2018-12-09T21:40:35.277Z,29.50
2018-12-09T21:43:09.484Z,29.50
2018-12-09T21:45:43.609Z,29.50
2018-12-09T21:48:18.548Z,29.50
2018-12-09T21:50:52.740Z,29.50
2018-12-09T21:53:27.808Z,29.50
2018-12-09T21:56:01.755Z,29.50
2018-12-09T21:58:35.632Z,29.50
2018-12-09T22:01:09.864Z,29.50
2018-12-09T22:03:44.927Z,29.50
2018-12-09T22:06:18.928Z,29.40
2018-12-09T22:08:53.252Z,29.40
2018-12-09T22:11:27.102Z,29.40
2018-12-09T22:14:01.511Z,29.40
2018-12-09T22:16:35.946Z,29.40
2018-12-09T22:19:09.600Z,29.40
2018-12-09T22:21:43.796Z,29.30
2018-12-09T22:24:19.953Z,29.30
2018-12-09T22:26:54.979Z,29.30
2018-12-09T22:29:28.781Z,29.20
2018-12-09T22:32:02.761Z,29.20
2018-12-09T22:34:37.259Z,29.20
2018-12-09T22:37:11.258Z,29.10
2018-12-09T22:39:44.949Z,29.10
2018-12-09T22:42:19.281Z,29.10
2018-12-09T22:44:53.441Z,29.10
2018-12-09T22:47:27.540Z,29.10
2018-12-09T22:50:02.180Z,29.10
2018-12-09T22:52:37.148Z,29.10
2018-12-09T22:55:11.909Z,29.10
2018-12-09T22:57:46.267Z,29.10
2018-12-09T23:00:27.545Z,29.10
2018-12-09T23:03:07.464Z,29.10
2018-12-09T23:05:42.645Z,29.10
2018-12-09T23:08:17.604Z,29.10
2018-12-09T23:10:51.428Z,29.10
2018-12-09T23:13:25.531Z,29.10
2018-12-09T23:15:59.454Z,29.10
2018-12-09T23:18:33.480Z,29.10
2018-12-09T23:21:07.862Z,29.00
2018-12-09T23:23:41.913Z,29.00
2018-12-09T23:26:16.617Z,29.00
2018-12-09T23:28:51.368Z,29.00
2018-12-09T23:31:27.270Z,29.00
2018-12-09T23:34:01.575Z,29.00
2018-12-09T23:36:35.719Z,29.00
2018-12-09T23:39:11.064Z,29.00
2018-12-09T23:41:45.442Z,29.00
2018-12-09T23:44:19.253Z,29.00
2018-12-09T23:46:53.100Z,29.00
2018-12-09T23:49:27.227Z,29.00
2018-12-09T23:52:01.333Z,28.90
2018-12-09T23:54:35.273Z,28.90
2018-12-09T23:57:09.395Z,28.90
2018-12-09T23:59:44.730Z,28.90
